Time;durP1;ratioP1;P1;durP2;ratioP2;P2;SDS_P1;SDS_P2;PMS_P1;PMS_P2;Temp;Humidity;BMP_temperature;BMP_pressure;BME280_temperature;BME280_humidity;BME280_pressure;Samples;Min_cycle;Max_cycle;Signal;HPM_P1;HPM_P2
2021/07/06 00:01:07;;;;;;;1.20;1.10;;;;;;;;;;5072341;28;20367;-54
2021/07/06 00:03:32;;;;;;;2.13;1.17;;;;;;;;;;5072356;28;20074;-53
2021/07/06 00:05:58;;;;;;;3.08;1.35;;;;;;;;;;5072590;28;20435;-53
2021/07/06 00:08:23;;;;;;;4.20;1.42;;;;;;;;;;5072203;28;20112;-54
2021/07/06 00:10:49;;;;;;;1.42;1.02;;;;;;;;;;5072367;28;20016;-54
2021/07/06 00:13:14;;;;;;;5.75;1.27;;;;;;;;;;5070757;28;20033;-53
2021/07/06 00:15:39;;;;;;;5.65;1.27;;;;;;;;;;5072532;28;20035;-54
2021/07/06 00:18:05;;;;;;;0.80;0.75;;;;;;;;;;5072497;28;20111;-53
2021/07/06 00:20:30;;;;;;;1.70;1.15;;;;;;;;;;5054088;28;20020;-54
2021/07/06 00:22:57;;;;;;;1.45;1.10;;;;;;;;;;5072149;28;20031;-53
2021/07/06 00:25:22;;;;;;;4.88;1.00;;;;;;;;;;5072036;28;20016;-53
2021/07/06 00:27:48;;;;;;;1.25;1.00;;;;;;;;;;5087730;28;20064;-54
2021/07/06 00:30:13;;;;;;;2.38;1.42;;;;;;;;;;5072324;28;20473;-54
2021/07/06 00:32:39;;;;;;;2.15;1.30;;;;;;;;;;5071988;28;20550;-54
2021/07/06 00:35:05;;;;;;;3.25;1.38;;;;;;;;;;5072353;28;20027;-54
2021/07/06 00:37:30;;;;;;;4.18;1.48;;;;;;;;;;5071925;28;20025;-54
2021/07/06 00:39:57;;;;;;;1.92;1.10;;;;;;;;;;5072804;28;20021;-54
2021/07/06 00:42:23;;;;;;;5.28;1.52;;;;;;;;;;5075819;28;20040;-53
2021/07/06 00:44:48;;;;;;;2.35;1.08;;;;;;;;;;5075954;28;20022;-54
2021/07/06 00:47:14;;;;;;;1.40;1.20;;;;;;;;;;5075809;28;20105;-53
2021/07/06 00:49:39;;;;;;;3.08;1.52;;;;;;;;;;5075509;28;20036;-54
2021/07/06 00:52:05;;;;;;;2.00;1.38;;;;;;;;;;5075775;28;20032;-54
2021/07/06 00:54:30;;;;;;;3.00;1.17;;;;;;;;;;5075973;28;20624;-53
2021/07/06 00:56:56;;;;;;;1.67;1.27;;;;;;;;;;5075654;28;20486;-53
2021/07/06 00:59:21;;;;;;;1.15;1.02;;;;;;;;;;5074369;28;20019;-53
2021/07/06 01:01:48;;;;;;;2.78;1.40;;;;;;;;;;5074368;28;20086;-55
2021/07/06 01:04:13;;;;;;;2.05;1.20;;;;;;;;;;5075723;28;20044;-53
2021/07/06 01:06:38;;;;;;;1.73;1.15;;;;;;;;;;5075519;28;20086;-52
2021/07/06 01:09:04;;;;;;;2.10;1.25;;;;;;;;;;5075509;28;20024;-54
2021/07/06 01:11:29;;;;;;;1.38;1.27;;;;;;;;;;5075166;28;20048;-54
2021/07/06 01:13:55;;;;;;;2.35;1.25;;;;;;;;;;5075435;28;20020;-54
2021/07/06 01:16:20;;;;;;;6.35;1.80;;;;;;;;;;5075247;28;20036;-54
2021/07/06 01:18:45;;;;;;;3.78;1.65;;;;;;;;;;5075244;28;20070;-54
2021/07/06 01:21:11;;;;;;;1.35;0.93;;;;;;;;;;5073939;28;20074;-54
2021/07/06 01:23:37;;;;;;;3.08;1.10;;;;;;;;;;5090995;28;20052;-54
2021/07/06 01:26:04;;;;;;;4.85;1.48;;;;;;;;;;5075450;28;20060;-53
2021/07/06 01:28:29;;;;;;;1.45;1.35;;;;;;;;;;5075276;28;20055;-54
2021/07/06 01:30:55;;;;;;;1.55;1.15;;;;;;;;;;5075381;28;20482;-53
2021/07/06 01:33:25;;;;;;;1.45;1.08;;;;;;;;;;5074795;28;20052;-54
2021/07/06 01:35:51;;;;;;;2.70;1.55;;;;;;;;;;5075085;28;20387;-54
2021/07/06 01:38:17;;;;;;;1.10;0.82;;;;;;;;;;5075170;28;20013;-53
2021/07/06 01:40:42;;;;;;;5.22;1.20;;;;;;;;;;5075091;28;20050;-51
2021/07/06 01:43:07;;;;;;;1.25;1.02;;;;;;;;;;5075163;28;20108;-55
2021/07/06 01:45:34;;;;;;;2.17;1.23;;;;;;;;;;5075103;28;20059;-54
2021/07/06 01:48:00;;;;;;;3.45;1.42;;;;;;;;;;5075015;28;20047;-54
2021/07/06 01:50:26;;;;;;;2.15;1.25;;;;;;;;;;5073393;28;20075;-53
2021/07/06 01:52:53;;;;;;;1.88;1.38;;;;;;;;;;5073879;28;20040;-54
2021/07/06 01:55:20;;;;;;;7.10;1.58;;;;;;;;;;5074772;28;20024;-52
2021/07/06 01:57:46;;;;;;;2.75;1.55;;;;;;;;;;5074865;28;20069;-53
2021/07/06 02:00:12;;;;;;;1.35;0.98;;;;;;;;;;5074438;28;20064;-52
2021/07/06 02:02:38;;;;;;;9.68;1.55;;;;;;;;;;5074798;28;20104;-54
2021/07/06 02:05:16;;;;;;;2.20;1.85;;;;;;;;;;5074556;28;20451;-54
2021/07/06 02:07:42;;;;;;;3.45;1.05;;;;;;;;;;5074667;28;20028;-54
2021/07/06 02:10:08;;;;;;;3.53;1.15;;;;;;;;;;5074609;28;20098;-53
2021/07/06 02:12:34;;;;;;;1.85;1.35;;;;;;;;;;5072914;28;20479;-53
2021/07/06 02:15:00;;;;;;;3.47;1.50;;;;;;;;;;5074506;28;20019;-54
2021/07/06 02:17:25;;;;;;;4.05;1.17;;;;;;;;;;5074412;28;20056;-54
2021/07/06 02:19:51;;;;;;;4.38;1.27;;;;;;;;;;5072939;28;20457;-53
2021/07/06 02:22:16;;;;;;;2.05;1.33;;;;;;;;;;5073921;28;20387;-53
2021/07/06 02:24:42;;;;;;;2.22;1.35;;;;;;;;;;5074116;28;20460;-52
2021/07/06 02:27:07;;;;;;;5.90;1.35;;;;;;;;;;5074344;28;20093;-52
2021/07/06 02:29:32;;;;;;;8.63;1.42;;;;;;;;;;5074081;28;20406;-54
2021/07/06 02:31:57;;;;;;;2.20;1.30;;;;;;;;;;5073787;28;20041;-54
2021/07/06 02:34:23;;;;;;;3.30;1.42;;;;;;;;;;5073814;28;20025;-53
2021/07/06 02:36:48;;;;;;;2.97;1.42;;;;;;;;;;5073845;28;20028;-54
2021/07/06 02:39:13;;;;;;;4.63;1.60;;;;;;;;;;5073793;28;20375;-53
2021/07/06 02:41:39;;;;;;;1.23;1.10;;;;;;;;;;5073607;28;20123;-53
2021/07/06 02:44:04;;;;;;;1.67;1.02;;;;;;;;;;5073662;28;20024;-54
2021/07/06 02:46:30;;;;;;;1.67;1.38;;;;;;;;;;5073877;28;20029;-53
2021/07/06 02:48:55;;;;;;;2.58;1.50;;;;;;;;;;5073423;28;20029;-53
2021/07/06 02:51:20;;;;;;;3.97;1.30;;;;;;;;;;5073647;28;20090;-53
2021/07/06 02:53:46;;;;;;;2.03;1.38;;;;;;;;;;5073450;28;20478;-53
2021/07/06 02:56:12;;;;;;;3.60;1.20;;;;;;;;;;5073360;28;20115;-54
2021/07/06 02:58:37;;;;;;;2.22;1.30;;;;;;;;;;5073366;28;20108;-54
2021/07/06 03:01:03;;;;;;;2.45;1.70;;;;;;;;;;5073295;28;20016;-52
2021/07/06 03:03:28;;;;;;;1.50;1.30;;;;;;;;;;5071949;28;20056;-53
2021/07/06 03:05:53;;;;;;;4.55;1.13;;;;;;;;;;5073265;28;20025;-53
2021/07/06 03:08:19;;;;;;;3.28;1.30;;;;;;;;;;5073441;28;20510;-53
2021/07/06 03:10:44;;;;;;;8.50;1.85;;;;;;;;;;5073305;28;20112;-53
2021/07/06 03:13:09;;;;;;;3.30;1.33;;;;;;;;;;5073228;28;20483;-52
2021/07/06 03:15:35;;;;;;;6.93;1.42;;;;;;;;;;5073320;28;20077;-54
2021/07/06 03:18:02;;;;;;;5.85;1.50;;;;;;;;;;5073380;28;20073;-53
2021/07/06 03:20:27;;;;;;;1.20;0.90;;;;;;;;;;5072799;28;20115;-53
2021/07/06 03:22:53;;;;;;;1.50;1.30;;;;;;;;;;5073275;28;20530;-53
2021/07/06 03:25:19;;;;;;;1.75;1.15;;;;;;;;;;5073082;28;20521;-53
2021/07/06 03:27:45;;;;;;;1.60;1.50;;;;;;;;;;5073202;28;20025;-53
2021/07/06 03:30:12;;;;;;;2.60;1.58;;;;;;;;;;5073100;28;20123;-52
2021/07/06 03:32:37;;;;;;;10.13;1.70;;;;;;;;;;5072653;28;20021;-53
2021/07/06 03:35:03;;;;;;;1.52;1.42;;;;;;;;;;5072808;28;20024;-53
2021/07/06 03:37:29;;;;;;;2.95;1.55;;;;;;;;;;5072879;28;20056;-53
2021/07/06 03:39:54;;;;;;;1.95;1.48;;;;;;;;;;5072979;28;20044;-53
2021/07/06 03:42:20;;;;;;;1.35;1.23;;;;;;;;;;5072581;28;20016;-54
2021/07/06 03:44:45;;;;;;;5.30;1.38;;;;;;;;;;5072605;28;20033;-53
2021/07/06 03:47:10;;;;;;;2.53;1.45;;;;;;;;;;5072618;28;20356;-53
2021/07/06 03:49:36;;;;;;;2.17;1.63;;;;;;;;;;5072370;28;20131;-53
2021/07/06 03:52:02;;;;;;;7.20;1.40;;;;;;;;;;5072709;28;20036;-53
2021/07/06 03:54:27;;;;;;;3.35;1.50;;;;;;;;;;5072592;28;20028;-53
2021/07/06 03:56:52;;;;;;;1.83;1.30;;;;;;;;;;5072805;28;20403;-53
2021/07/06 03:59:18;;;;;;;5.40;2.75;;;;;;;;;;5072403;28;20037;-53
2021/07/06 04:01:43;;;;;;;1.27;1.10;;;;;;;;;;5072612;28;20120;-54
2021/07/06 04:04:09;;;;;;;2.08;1.55;;;;;;;;;;5072600;28;20028;-53
2021/07/06 04:06:34;;;;;;;5.40;1.38;;;;;;;;;;5071388;28;20016;-53
2021/07/06 04:08:59;;;;;;;4.88;1.67;;;;;;;;;;5072228;28;20682;-53
2021/07/06 04:11:25;;;;;;;1.35;1.02;;;;;;;;;;5072224;28;20020;-53
2021/07/06 04:13:50;;;;;;;3.33;1.38;;;;;;;;;;5072302;28;20066;-53
2021/07/06 04:16:16;;;;;;;5.18;1.40;;;;;;;;;;5071882;28;20013;-52
2021/07/06 04:18:41;;;;;;;3.30;1.30;;;;;;;;;;5072464;28;20025;-53
2021/07/06 04:21:07;;;;;;;6.20;1.60;;;;;;;;;;5072457;28;20028;-52
2021/07/06 04:23:39;;;;;;;4.38;1.52;;;;;;;;;;5072052;28;20047;-52
2021/07/06 04:26:05;;;;;;;2.20;1.63;;;;;;;;;;5072225;28;20108;-53
2021/07/06 04:28:30;;;;;;;1.30;1.20;;;;;;;;;;5072276;28;20056;-52
2021/07/06 04:30:56;;;;;;;1.60;1.50;;;;;;;;;;5072056;28;20107;-52
2021/07/06 04:33:21;;;;;;;1.52;1.17;;;;;;;;;;5072224;28;20087;-54
2021/07/06 04:35:47;;;;;;;3.60;1.50;;;;;;;;;;5072049;28;20032;-53
2021/07/06 04:38:12;;;;;;;1.27;1.17;;;;;;;;;;5071993;28;20055;-54
2021/07/06 04:40:38;;;;;;;4.07;1.20;;;;;;;;;;5071968;28;20433;-55
2021/07/06 04:43:06;;;;;;;5.20;1.45;;;;;;;;;;5072012;28;20463;-55
2021/07/06 04:45:31;;;;;;;2.40;1.08;;;;;;;;;;5071794;28;20024;-56
2021/07/06 04:47:57;;;;;;;4.00;1.45;;;;;;;;;;5070695;28;20082;-56
2021/07/06 04:50:22;;;;;;;2.63;1.13;;;;;;;;;;5071721;28;20041;-56
2021/07/06 04:52:48;;;;;;;2.67;1.20;;;;;;;;;;5070458;28;20040;-57
2021/07/06 04:55:15;;;;;;;2.00;1.50;;;;;;;;;;5072086;28;20024;-57
2021/07/06 04:57:41;;;;;;;2.42;1.35;;;;;;;;;;5072214;28;20016;-57
2021/07/06 05:00:07;;;;;;;1.10;0.95;;;;;;;;;;5071793;28;20474;-57
2021/07/06 05:02:33;;;;;;;2.05;1.30;;;;;;;;;;5071811;28;20020;-58
2021/07/06 05:04:58;;;;;;;6.22;1.90;;;;;;;;;;5070517;28;20024;-57
2021/07/06 05:07:24;;;;;;;1.88;1.25;;;;;;;;;;5071710;28;20371;-57
2021/07/06 05:09:49;;;;;;;2.33;1.60;;;;;;;;;;5071792;28;20032;-58
2021/07/06 05:12:14;;;;;;;3.20;1.30;;;;;;;;;;5071829;28;20028;-57
2021/07/06 05:14:40;;;;;;;1.92;1.20;;;;;;;;;;5071964;28;20032;-57
2021/07/06 05:17:05;;;;;;;5.15;1.42;;;;;;;;;;5072049;28;20052;-57
2021/07/06 05:19:31;;;;;;;5.55;1.48;;;;;;;;;;5071508;28;20600;-58
2021/07/06 05:21:56;;;;;;;2.88;1.52;;;;;;;;;;5071666;28;20016;-58
2021/07/06 05:24:21;;;;;;;4.28;1.48;;;;;;;;;;5071485;28;20028;-58
2021/07/06 05:26:47;;;;;;;1.73;1.50;;;;;;;;;;5070823;28;20028;-58
2021/07/06 05:29:12;;;;;;;7.00;2.58;;;;;;;;;;5075468;28;20075;-58
2021/07/06 05:31:38;;;;;;;2.03;1.60;;;;;;;;;;5075235;28;20423;-59
2021/07/06 05:34:03;;;;;;;3.78;2.75;;;;;;;;;;5075347;28;20115;-59
2021/07/06 05:36:28;;;;;;;4.03;1.33;;;;;;;;;;5075192;28;20020;-59
2021/07/06 05:38:54;;;;;;;4.65;1.38;;;;;;;;;;5075065;28;20028;-58
2021/07/06 05:41:19;;;;;;;2.53;1.63;;;;;;;;;;5074783;28;20021;-59
2021/07/06 05:43:45;;;;;;;4.18;1.73;;;;;;;;;;5075105;28;20032;-59
2021/07/06 05:46:10;;;;;;;1.48;1.25;;;;;;;;;;5074939;28;20359;-59
2021/07/06 05:48:36;;;;;;;1.67;1.40;;;;;;;;;;5074644;28;20043;-59
2021/07/06 05:51:01;;;;;;;2.10;1.60;;;;;;;;;;5074626;28;20049;-59
2021/07/06 05:53:27;;;;;;;1.58;1.27;;;;;;;;;;5074635;28;20043;-59
2021/07/06 05:55:52;;;;;;;1.92;1.65;;;;;;;;;;5073254;28;20020;-59
2021/07/06 05:58:17;;;;;;;2.20;1.60;;;;;;;;;;5074367;28;20050;-59
2021/07/06 06:00:44;;;;;;;3.65;1.52;;;;;;;;;;5074754;28;20016;-59
2021/07/06 06:03:12;;;;;;;1.70;1.45;;;;;;;;;;5074522;28;20395;-59
2021/07/06 06:05:38;;;;;;;1.98;1.23;;;;;;;;;;5074405;28;20030;-59
2021/07/06 06:08:04;;;;;;;4.65;1.30;;;;;;;;;;5074417;28;20467;-59
2021/07/06 06:10:29;;;;;;;1.65;1.55;;;;;;;;;;5074552;28;20028;-59
2021/07/06 06:12:54;;;;;;;1.83;1.42;;;;;;;;;;5074279;28;20072;-59
2021/07/06 06:15:20;;;;;;;2.60;1.45;;;;;;;;;;5072954;28;20020;-59
2021/07/06 06:17:45;;;;;;;1.73;1.50;;;;;;;;;;5074300;28;20024;-58
2021/07/06 06:20:11;;;;;;;1.92;1.40;;;;;;;;;;5074159;28;20009;-58
2021/07/06 06:22:36;;;;;;;2.80;1.90;;;;;;;;;;5074119;28;20028;-58
2021/07/06 06:25:02;;;;;;;3.65;1.40;;;;;;;;;;5074364;28;20056;-58
2021/07/06 06:27:28;;;;;;;1.85;1.45;;;;;;;;;;5072762;28;20111;-58
2021/07/06 06:29:53;;;;;;;2.00;1.58;;;;;;;;;;5074031;28;20052;-58
2021/07/06 06:32:19;;;;;;;2.33;1.60;;;;;;;;;;5072595;28;20043;-58
2021/07/06 06:34:44;;;;;;;3.35;1.20;;;;;;;;;;5073977;28;20060;-58
2021/07/06 06:37:10;;;;;;;6.47;1.73;;;;;;;;;;5073893;28;20438;-58
2021/07/06 06:39:35;;;;;;;1.85;1.40;;;;;;;;;;5073308;28;20108;-58
2021/07/06 06:42:00;;;;;;;1.58;1.42;;;;;;;;;;5074070;28;20036;-58
2021/07/06 06:44:26;;;;;;;3.42;1.45;;;;;;;;;;5073934;28;20013;-58
2021/07/06 06:46:51;;;;;;;1.75;1.27;;;;;;;;;;5073594;28;20637;-60
2021/07/06 06:49:17;;;;;;;1.88;1.40;;;;;;;;;;5072290;28;20036;-58
2021/07/06 06:51:42;;;;;;;1.80;1.40;;;;;;;;;;5089032;28;20479;-57
2021/07/06 06:54:07;;;;;;;5.80;1.67;;;;;;;;;;5073558;28;20025;-58
2021/07/06 06:56:33;;;;;;;4.80;1.45;;;;;;;;;;5072231;28;20028;-58
2021/07/06 06:58:58;;;;;;;3.08;1.40;;;;;;;;;;5073475;28;20421;-58
2021/07/06 07:01:24;;;;;;;4.47;1.40;;;;;;;;;;5073512;28;20028;-58
2021/07/06 07:03:49;;;;;;;2.47;1.50;;;;;;;;;;5055501;28;20543;-57
2021/07/06 07:06:14;;;;;;;2.97;1.30;;;;;;;;;;5073471;28;20048;-58
2021/07/06 07:08:40;;;;;;;2.00;1.52;;;;;;;;;;5073216;28;20031;-57
2021/07/06 07:11:05;;;;;;;2.38;1.60;;;;;;;;;;5071967;28;20024;-57
2021/07/06 07:13:30;;;;;;;4.10;1.42;;;;;;;;;;5073251;28;20111;-58
2021/07/06 07:15:56;;;;;;;3.33;1.27;;;;;;;;;;5073100;28;20115;-57
2021/07/06 07:18:21;;;;;;;4.72;1.65;;;;;;;;;;5072941;28;20020;-58
2021/07/06 07:20:47;;;;;;;1.50;1.40;;;;;;;;;;5071771;28;20033;-57
2021/07/06 07:23:12;;;;;;;1.27;1.13;;;;;;;;;;5072938;28;20023;-58
2021/07/06 07:25:38;;;;;;;2.67;1.80;;;;;;;;;;5072900;28;20029;-58
2021/07/06 07:28:03;;;;;;;1.80;1.33;;;;;;;;;;5072952;28;20024;-57
2021/07/06 07:30:28;;;;;;;3.50;1.50;;;;;;;;;;5072964;28;20039;-57
2021/07/06 07:32:54;;;;;;;2.03;1.40;;;;;;;;;;5072688;28;20535;-58
2021/07/06 07:35:20;;;;;;;4.28;1.70;;;;;;;;;;5072740;28;20021;-57
2021/07/06 07:37:45;;;;;;;1.70;1.13;;;;;;;;;;5072791;28;20380;-57
2021/07/06 07:40:12;;;;;;;2.20;1.35;;;;;;;;;;5072803;28;20113;-58
2021/07/06 07:42:37;;;;;;;2.97;2.03;;;;;;;;;;5071214;28;20024;-58
2021/07/06 07:45:03;;;;;;;1.52;1.40;;;;;;;;;;5071453;28;20028;-57
2021/07/06 07:47:29;;;;;;;1.90;1.58;;;;;;;;;;5072633;28;20087;-57
2021/07/06 07:49:54;;;;;;;2.78;1.60;;;;;;;;;;5071593;28;20127;-58
2021/07/06 07:52:19;;;;;;;1.90;1.40;;;;;;;;;;5072476;28;20075;-57
2021/07/06 07:54:45;;;;;;;2.75;1.55;;;;;;;;;;5072414;28;20373;-58
2021/07/06 07:57:10;;;;;;;1.70;1.20;;;;;;;;;;5072741;28;20408;-57
2021/07/06 07:59:39;;;;;;;3.33;1.33;;;;;;;;;;5072705;28;20021;-57
2021/07/06 08:02:04;;;;;;;6.32;1.25;;;;;;;;;;5072638;28;20048;-58
2021/07/06 08:04:30;;;;;;;1.80;1.20;;;;;;;;;;5072642;28;20430;-58
2021/07/06 08:06:55;;;;;;;2.20;1.58;;;;;;;;;;5072432;28;20024;-58
2021/07/06 08:09:21;;;;;;;5.13;1.65;;;;;;;;;;5072581;28;20028;-57
2021/07/06 08:11:46;;;;;;;6.07;2.85;;;;;;;;;;5072471;28;20029;-58
2021/07/06 08:14:11;;;;;;;3.22;1.52;;;;;;;;;;5072556;28;20024;-58
2021/07/06 08:16:37;;;;;;;2.63;1.40;;;;;;;;;;5072254;28;20042;-57
2021/07/06 08:19:02;;;;;;;6.07;1.95;;;;;;;;;;5070925;28;20036;-57
2021/07/06 08:21:27;;;;;;;7.00;1.90;;;;;;;;;;5072107;28;20043;-57
2021/07/06 08:23:55;;;;;;;4.65;1.70;;;;;;;;;;5072222;28;20493;-58
2021/07/06 08:26:20;;;;;;;2.88;1.50;;;;;;;;;;5072047;28;20013;-57
2021/07/06 08:28:46;;;;;;;1.83;1.30;;;;;;;;;;5072495;28;20486;-58
2021/07/06 08:31:12;;;;;;;4.32;1.45;;;;;;;;;;5072346;28;20472;-57
2021/07/06 08:33:38;;;;;;;2.45;1.05;;;;;;;;;;5072210;28;20025;-58
2021/07/06 08:36:03;;;;;;;1.65;1.38;;;;;;;;;;5072205;28;20138;-58
2021/07/06 08:38:30;;;;;;;2.85;1.20;;;;;;;;;;5071995;28;20390;-58
2021/07/06 08:40:55;;;;;;;2.65;1.48;;;;;;;;;;5072277;28;20134;-58
2021/07/06 08:43:21;;;;;;;1.60;1.20;;;;;;;;;;5071959;28;20131;-58
2021/07/06 08:45:46;;;;;;;2.28;1.17;;;;;;;;;;5072054;28;20031;-58
2021/07/06 08:48:12;;;;;;;2.05;1.10;;;;;;;;;;5072041;28;20467;-58
2021/07/06 08:50:37;;;;;;;6.50;1.50;;;;;;;;;;5071706;28;20127;-58
2021/07/06 08:53:03;;;;;;;3.22;1.33;;;;;;;;;;5071756;28;20040;-58
2021/07/06 08:55:28;;;;;;;1.40;1.10;;;;;;;;;;5070848;28;20031;-58
2021/07/06 08:57:54;;;;;;;1.73;1.58;;;;;;;;;;5071840;28;20561;-59
2021/07/06 09:00:20;;;;;;;1.38;0.95;;;;;;;;;;5071784;28;20013;-58
2021/07/06 09:02:56;;;;;;;2.85;1.30;;;;;;;;;;5075434;28;20032;-59
2021/07/06 09:05:21;;;;;;;3.30;1.63;;;;;;;;;;5074358;28;20131;-58
2021/07/06 09:07:47;;;;;;;3.92;1.00;;;;;;;;;;5075789;28;20507;-59
2021/07/06 09:10:16;;;;;;;3.05;0.90;;;;;;;;;;5075498;28;20105;-58
2021/07/06 09:12:44;;;;;;;1.02;0.90;;;;;;;;;;5075617;28;20041;-59
2021/07/06 09:15:22;;;;;;;2.05;1.65;;;;;;;;;;5075404;28;20475;-59
2021/07/06 09:18:02;;;;;;;1.13;0.82;;;;;;;;;;5091048;28;20119;-59
2021/07/06 09:20:28;;;;;;;1.95;0.50;;;;;;;;;;5075208;28;20024;-58
2021/07/06 09:22:53;;;;;;;0.70;0.70;;;;;;;;;;5075554;28;20082;-59
2021/07/06 09:25:26;;;;;;;0.75;0.63;;;;;;;;;;5073792;28;20115;-58
2021/07/06 09:27:51;;;;;;;1.08;0.88;;;;;;;;;;5075318;28;20043;-59
2021/07/06 09:30:19;;;;;;;2.05;0.85;;;;;;;;;;5075319;28;20029;-59
2021/07/06 09:32:52;;;;;;;0.60;0.60;;;;;;;;;;5075345;28;20037;-58
2021/07/06 09:35:19;;;;;;;;;;;;;;;;;;5075460;28;20073;-58
2021/07/06 09:37:50;;;;;;;0.95;0.70;;;;;;;;;;5075016;28;19912;-59
2021/07/06 09:40:20;;;;;;;1.45;0.70;;;;;;;;;;5075100;28;20091;-58
2021/07/06 09:42:45;;;;;;;1.95;0.55;;;;;;;;;;5074906;28;20032;-58
2021/07/06 09:45:10;;;;;;;3.05;0.82;;;;;;;;;;5074947;28;20029;-57
2021/07/06 09:47:36;;;;;;;0.50;0.50;;;;;;;;;;5074784;28;20052;-58
2021/07/06 09:50:01;;;;;;;2.17;1.05;;;;;;;;;;5074720;28;20111;-58
2021/07/06 09:52:33;;;;;;;1.33;0.70;;;;;;;;;;5073345;28;20048;-58
2021/07/06 09:55:05;;;;;;;1.23;0.55;;;;;;;;;;5056741;28;20455;-58
2021/07/06 09:57:36;;;;;;;0.88;0.75;;;;;;;;;;5073411;28;20031;-59
2021/07/06 10:00:09;;;;;;;1.13;0.77;;;;;;;;;;5074613;28;20028;-58
2021/07/06 10:02:43;;;;;;;0.80;0.70;;;;;;;;;;5073391;28;20025;-58
2021/07/06 10:05:11;;;;;;;0.60;0.60;;;;;;;;;;5072699;28;20032;-57
2021/07/06 10:07:38;;;;;;;2.08;0.63;;;;;;;;;;5074724;28;20033;-58
2021/07/06 10:10:08;;;;;;;1.13;0.70;;;;;;;;;;5074805;28;20078;-58
2021/07/06 10:12:35;;;;;;;1.25;0.63;;;;;;;;;;5073666;28;20110;-57
2021/07/06 10:15:00;;;;;;;0.82;0.60;;;;;;;;;;5074415;28;20052;-57
2021/07/06 10:17:26;;;;;;;0.57;0.57;;;;;;;;;;5074292;28;20064;-57
2021/07/06 10:19:51;;;;;;;0.93;0.60;;;;;;;;;;5074530;28;20039;-57
2021/07/06 10:22:16;;;;;;;1.02;0.52;;;;;;;;;;5074102;28;20017;-58
2021/07/06 10:24:43;;;;;;;1.73;0.70;;;;;;;;;;5073054;28;20493;-57
2021/07/06 10:27:21;;;;;;;1.40;0.75;;;;;;;;;;5074152;28;20050;-58
2021/07/06 10:29:46;;;;;;;0.70;0.57;;;;;;;;;;5073930;28;20036;-58
2021/07/06 10:32:31;;;;;;;1.05;0.80;;;;;;;;;;5074243;28;20029;-57
2021/07/06 10:34:57;;;;;;;1.23;0.82;;;;;;;;;;5073874;28;20024;-58
2021/07/06 10:37:28;;;;;;;1.15;1.02;;;;;;;;;;5072665;28;20032;-58
2021/07/06 10:39:53;;;;;;;0.90;0.70;;;;;;;;;;5073881;28;20467;-57
2021/07/06 10:42:18;;;;;;;0.82;0.68;;;;;;;;;;5072799;28;20155;-57
2021/07/06 10:44:44;;;;;;;0.95;0.75;;;;;;;;;;5073732;28;20491;-57
2021/07/06 10:47:28;;;;;;;0.85;0.75;;;;;;;;;;5073755;28;20037;-58
2021/07/06 10:49:54;;;;;;;0.45;0.40;;;;;;;;;;5089166;28;20457;-57
2021/07/06 10:52:32;;;;;;;0.73;0.47;;;;;;;;;;5073486;28;20166;-57
2021/07/06 10:55:18;;;;;;;0.52;0.50;;;;;;;;;;5073551;28;20025;-58
2021/07/06 10:57:47;;;;;;;4.55;0.65;;;;;;;;;;5088915;28;20497;-58
2021/07/06 11:00:12;;;;;;;0.45;0.35;;;;;;;;;;5073737;28;20032;-58
2021/07/06 11:02:38;;;;;;;1.13;0.75;;;;;;;;;;5073147;28;20024;-57
2021/07/06 11:05:05;;;;;;;0.40;0.35;;;;;;;;;;5073327;28;20462;-57
2021/07/06 11:07:30;;;;;;;0.98;0.73;;;;;;;;;;5073305;28;20051;-57
2021/07/06 11:09:55;;;;;;;0.73;0.40;;;;;;;;;;5088634;28;20530;-57
2021/07/06 11:12:22;;;;;;;0.45;0.40;;;;;;;;;;5073044;28;20050;-57
2021/07/06 11:14:50;;;;;;;0.80;0.70;;;;;;;;;;5073264;28;20016;-57
2021/07/06 11:17:35;;;;;;;1.02;0.70;;;;;;;;;;5073068;28;20028;-58
2021/07/06 11:20:03;;;;;;;0.55;0.47;;;;;;;;;;5071824;28;20048;-57
2021/07/06 11:22:43;;;;;;;1.02;0.50;;;;;;;;;;5073060;28;20025;-57
2021/07/06 11:25:18;;;;;;;1.83;0.30;;;;;;;;;;5073254;28;20028;-57
2021/07/06 11:28:03;;;;;;;0.65;0.52;;;;;;;;;;5071754;28;20115;-56
2021/07/06 11:30:29;;;;;;;0.70;0.70;;;;;;;;;;5072917;28;20123;-57
2021/07/06 11:33:07;;;;;;;0.60;0.30;;;;;;;;;;5088506;28;20121;-57
2021/07/06 11:35:35;;;;;;;0.60;0.60;;;;;;;;;;5072678;28;20024;-56
2021/07/06 11:38:02;;;;;;;0.50;0.38;;;;;;;;;;5072817;28;20020;-56
2021/07/06 11:40:28;;;;;;;0.50;0.30;;;;;;;;;;5072570;28;20027;-57
2021/07/06 11:42:53;;;;;;;0.95;0.28;;;;;;;;;;5072486;28;20017;-56
2021/07/06 11:45:20;;;;;;;0.60;0.50;;;;;;;;;;5072511;28;20106;-56
2021/07/06 11:47:45;;;;;;;1.38;0.60;;;;;;;;;;5072573;28;20218;-56
2021/07/06 11:50:26;;;;;;;0.50;0.35;;;;;;;;;;5072526;28;20051;-57
2021/07/06 11:52:52;;;;;;;0.77;0.40;;;;;;;;;;5072431;28;20033;-57
2021/07/06 11:55:26;;;;;;;0.40;0.20;;;;;;;;;;5071561;28;20097;-56
2021/07/06 11:57:55;;;;;;;0.47;0.28;;;;;;;;;;5072455;28;20036;-55
2021/07/06 12:00:22;;;;;;;0.60;0.60;;;;;;;;;;5072385;28;20112;-56
2021/07/06 12:02:47;;;;;;;0.50;0.32;;;;;;;;;;5072500;28;20031;-57
2021/07/06 12:05:16;;;;;;;0.63;0.40;;;;;;;;;;5071132;28;20008;-57
2021/07/06 12:07:42;;;;;;;0.50;0.38;;;;;;;;;;5072352;28;20058;-56
2021/07/06 12:10:09;;;;;;;0.50;0.38;;;;;;;;;;5072295;28;20012;-56
2021/07/06 12:12:35;;;;;;;1.02;1.02;;;;;;;;;;5072510;28;20076;-56
2021/07/06 12:15:01;;;;;;;0.32;0.20;;;;;;;;;;5072606;28;20047;-56
2021/07/06 12:17:30;;;;;;;0.50;0.50;;;;;;;;;;5071286;28;20029;-56
2021/07/06 12:19:59;;;;;;;1.17;0.70;;;;;;;;;;5072282;28;20483;-56
2021/07/06 12:22:26;;;;;;;0.75;0.43;;;;;;;;;;5072137;28;20029;-57
2021/07/06 12:24:53;;;;;;;3.35;0.40;;;;;;;;;;5072341;28;20692;-55
2021/07/06 12:27:18;;;;;;;0.93;0.60;;;;;;;;;;5072375;28;20025;-56
2021/07/06 12:29:52;;;;;;;0.32;0.32;;;;;;;;;;5072325;28;20417;-56
2021/07/06 12:32:18;;;;;;;1.30;0.63;;;;;;;;;;5070848;28;20082;-56
2021/07/06 12:34:46;;;;;;;0.22;0.20;;;;;;;;;;5072087;28;20370;-56
2021/07/06 12:37:12;;;;;;;0.20;0.20;;;;;;;;;;5073965;28;20471;-56
2021/07/06 12:39:39;;;;;;;0.70;0.55;;;;;;;;;;5076079;28;20020;-56
2021/07/06 12:42:20;;;;;;;0.85;0.45;;;;;;;;;;5091686;28;20078;-57
2021/07/06 12:44:50;;;;;;;0.60;0.40;;;;;;;;;;5076002;28;20051;-56
2021/07/06 12:47:26;;;;;;;0.77;0.60;;;;;;;;;;5076143;28;20060;-56
2021/07/06 12:50:05;;;;;;;0.35;0.30;;;;;;;;;;5075667;28;20045;-57
2021/07/06 12:52:30;;;;;;;1.10;0.50;;;;;;;;;;5075741;28;20040;-56
2021/07/06 12:54:56;;;;;;;0.50;0.38;;;;;;;;;;5075781;28;20023;-56
2021/07/06 12:57:26;;;;;;;0.40;0.35;;;;;;;;;;5075776;28;20056;-56
2021/07/06 13:00:06;;;;;;;0.50;0.40;;;;;;;;;;5075748;28;20017;-56
2021/07/06 13:02:32;;;;;;;0.55;0.40;;;;;;;;;;5074480;28;20037;-57
2021/07/06 13:04:58;;;;;;;0.50;0.50;;;;;;;;;;5075612;28;20023;-57
2021/07/06 13:07:25;;;;;;;1.40;0.65;;;;;;;;;;5075649;28;20028;-57
2021/07/06 13:10:07;;;;;;;0.93;0.70;;;;;;;;;;5074303;28;20025;-56
2021/07/06 13:12:33;;;;;;;2.00;0.50;;;;;;;;;;5075704;28;20072;-57
2021/07/06 13:14:58;;;;;;;1.13;0.80;;;;;;;;;;5075812;28;20969;-58
2021/07/06 13:17:30;;;;;;;1.20;0.60;;;;;;;;;;5075314;28;20082;-57
2021/07/06 13:20:07;;;;;;;4.63;0.50;;;;;;;;;;5090997;28;20487;-56
2021/07/06 13:22:32;;;;;;;0.63;0.45;;;;;;;;;;5075242;28;20024;-56
2021/07/06 13:24:59;;;;;;;0.50;0.47;;;;;;;;;;5074030;28;20367;-56
2021/07/06 13:27:31;;;;;;;1.00;0.60;;;;;;;;;;5075152;28;20067;-56
2021/07/06 13:30:01;;;;;;;0.95;0.50;;;;;;;;;;5073970;28;20056;-55
2021/07/06 13:32:28;;;;;;;1.17;0.60;;;;;;;;;;5074892;28;20024;-56
2021/07/06 13:34:53;;;;;;;0.80;0.50;;;;;;;;;;5075208;28;20103;-57
2021/07/06 13:37:19;;;;;;;0.52;0.50;;;;;;;;;;5075164;28;20059;-57
2021/07/06 13:39:44;;;;;;;3.17;0.90;;;;;;;;;;5074775;28;20048;-57
2021/07/06 13:42:09;;;;;;;0.50;0.47;;;;;;;;;;5068953;28;20021;-57
2021/07/06 13:44:37;;;;;;;1.65;0.82;;;;;;;;;;5055084;28;20499;-56
2021/07/06 13:47:03;;;;;;;1.50;0.73;;;;;;;;;;5054581;28;20017;-56
2021/07/06 13:49:30;;;;;;;0.98;0.88;;;;;;;;;;5054238;28;20484;-56
2021/07/06 13:51:58;;;;;;;2.45;0.90;;;;;;;;;;5054639;28;20102;-57
2021/07/06 13:54:25;;;;;;;1.13;0.80;;;;;;;;;;5054972;28;20032;-57
2021/07/06 13:56:51;;;;;;;0.57;0.57;;;;;;;;;;5054696;28;20082;-56
2021/07/06 13:59:17;;;;;;;0.57;0.55;;;;;;;;;;5054673;28;20040;-56
2021/07/06 14:01:42;;;;;;;2.65;0.80;;;;;;;;;;5053262;28;20018;-57
2021/07/06 14:04:08;;;;;;;3.55;1.73;;;;;;;;;;5054550;28;20025;-57
2021/07/06 14:06:33;;;;;;;0.80;0.70;;;;;;;;;;5054440;28;20020;-56
2021/07/06 14:08:59;;;;;;;0.95;0.68;;;;;;;;;;5054368;28;20021;-57
2021/07/06 14:11:24;;;;;;;0.98;0.82;;;;;;;;;;5054339;28;20031;-56
2021/07/06 14:13:50;;;;;;;1.38;0.80;;;;;;;;;;5054610;28;20037;-56
2021/07/06 14:16:17;;;;;;;1.30;1.00;;;;;;;;;;5053136;28;20017;-56
2021/07/06 14:18:43;;;;;;;2.95;1.35;;;;;;;;;;5054328;28;20037;-56
2021/07/06 14:21:09;;;;;;;0.90;0.77;;;;;;;;;;5069516;28;20057;-57
2021/07/06 14:23:34;;;;;;;1.55;0.90;;;;;;;;;;5054463;28;20052;-56
2021/07/06 14:26:02;;;;;;;1.95;1.50;;;;;;;;;;5053034;28;20422;-57
2021/07/06 14:28:29;;;;;;;1.77;1.10;;;;;;;;;;5053793;28;20035;-57
2021/07/06 14:30:54;;;;;;;1.25;1.00;;;;;;;;;;5053968;28;20044;-57
2021/07/06 14:33:20;;;;;;;1.42;1.17;;;;;;;;;;5054238;28;20075;-56
2021/07/06 14:35:47;;;;;;;1.50;1.05;;;;;;;;;;5052843;28;20075;-56
2021/07/06 14:38:13;;;;;;;1.27;1.00;;;;;;;;;;5054224;28;20383;-57
2021/07/06 14:40:38;;;;;;;2.17;1.20;;;;;;;;;;5053673;28;20020;-56